sensor_id;sensor_type;location;lat;lon;timestamp;P1;durP1;ratioP1;P2;durP2;ratioP2
64515;SDS011;50891;37.380;-122.076;2022-07-29T00:02:10;3.50;;;1.67;;
64515;SDS011;50891;37.380;-122.076;2022-07-29T00:04:36;4.90;;;1.75;;
64515;SDS011;50891;37.380;-122.076;2022-07-29T00:07:03;2.93;;;1.50;;
64515;SDS011;50891;37.380;-122.076;2022-07-29T00:09:30;2.87;;;1.70;;
64515;SDS011;50891;37.380;-122.076;2022-07-29T00:11:58;2.97;;;1.70;;
64515;SDS011;50891;37.380;-122.076;2022-07-29T00:14:26;3.47;;;1.67;;
64515;SDS011;50891;37.380;-122.076;2022-07-29T00:16:52;4.40;;;1.75;;
64515;SDS011;50891;37.380;-122.076;2022-07-29T00:19:19;2.70;;;1.60;;
64515;SDS011;50891;37.380;-122.076;2022-07-29T00:21:45;3.40;;;1.70;;
64515;SDS011;50891;37.380;-122.076;2022-07-29T00:24:11;4.60;;;1.83;;
64515;SDS011;50891;37.380;-122.076;2022-07-29T00:26:38;3.75;;;1.80;;
64515;SDS011;50891;37.380;-122.076;2022-07-29T00:29:04;3.25;;;1.80;;
64515;SDS011;50891;37.380;-122.076;2022-07-29T00:31:30;3.55;;;1.98;;
64515;SDS011;50891;37.380;-122.076;2022-07-29T00:33:56;3.08;;;1.73;;
64515;SDS011;50891;37.380;-122.076;2022-07-29T00:36:23;3.53;;;1.75;;
64515;SDS011;50891;37.380;-122.076;2022-07-29T00:38:49;3.85;;;1.80;;
64515;SDS011;50891;37.380;-122.076;2022-07-29T00:41:17;2.73;;;1.70;;
64515;SDS011;50891;37.380;-122.076;2022-07-29T00:43:43;4.13;;;1.80;;
64515;SDS011;50891;37.380;-122.076;2022-07-29T00:46:10;4.30;;;2.00;;
64515;SDS011;50891;37.380;-122.076;2022-07-29T00:48:37;4.25;;;1.80;;
64515;SDS011;50891;37.380;-122.076;2022-07-29T00:51:04;3.95;;;1.90;;
64515;SDS011;50891;37.380;-122.076;2022-07-29T00:53:32;2.92;;;1.85;;
64515;SDS011;50891;37.380;-122.076;2022-07-29T00:56:00;5.13;;;2.00;;
64515;SDS011;50891;37.380;-122.076;2022-07-29T00:58:27;3.42;;;1.90;;
64515;SDS011;50891;37.380;-122.076;2022-07-29T01:00:53;3.90;;;1.80;;
64515;SDS011;50891;37.380;-122.076;2022-07-29T01:03:19;3.72;;;1.92;;
64515;SDS011;50891;37.380;-122.076;2022-07-29T01:05:45;2.90;;;1.77;;
64515;SDS011;50891;37.380;-122.076;2022-07-29T01:08:12;3.27;;;1.80;;
64515;SDS011;50891;37.380;-122.076;2022-07-29T01:10:40;3.15;;;1.75;;
64515;SDS011;50891;37.380;-122.076;2022-07-29T01:13:10;3.45;;;1.70;;
64515;SDS011;50891;37.380;-122.076;2022-07-29T01:15:41;3.05;;;1.80;;
64515;SDS011;50891;37.380;-122.076;2022-07-29T01:18:16;3.87;;;1.97;;
64515;SDS011;50891;37.380;-122.076;2022-07-29T01:32:19;4.00;;;1.85;;
64515;SDS011;50891;37.380;-122.076;2022-07-29T01:34:56;3.72;;;1.60;;
64515;SDS011;50891;37.380;-122.076;2022-07-29T01:37:39;4.47;;;1.90;;
64515;SDS011;50891;37.380;-122.076;2022-07-29T01:40:19;4.80;;;1.98;;
64515;SDS011;50891;37.380;-122.076;2022-07-29T01:42:52;3.85;;;2.00;;
64515;SDS011;50891;37.380;-122.076;2022-07-29T01:45:41;4.60;;;2.47;;
64515;SDS011;50891;37.380;-122.076;2022-07-29T01:48:17;17.65;;;15.85;;
64515;SDS011;50891;37.380;-122.076;2022-07-29T01:51:05;12.68;;;10.75;;
64515;SDS011;50891;37.380;-122.076;2022-07-29T01:53:38;11.00;;;8.32;;
64515;SDS011;50891;37.380;-122.076;2022-07-29T01:56:11;9.02;;;6.80;;
64515;SDS011;50891;37.380;-122.076;2022-07-29T01:58:40;8.60;;;6.32;;
64515;SDS011;50891;37.380;-122.076;2022-07-29T02:01:09;6.38;;;5.13;;
64515;SDS011;50891;37.380;-122.076;2022-07-29T02:03:37;7.07;;;5.10;;
64515;SDS011;50891;37.380;-122.076;2022-07-29T02:06:04;7.25;;;4.60;;
64515;SDS011;50891;37.380;-122.076;2022-07-29T02:08:34;5.53;;;4.07;;
64515;SDS011;50891;37.380;-122.076;2022-07-29T02:11:03;5.55;;;3.67;;
64515;SDS011;50891;37.380;-122.076;2022-07-29T02:13:31;5.13;;;3.38;;
64515;SDS011;50891;37.380;-122.076;2022-07-29T02:16:01;5.85;;;3.38;;
64515;SDS011;50891;37.380;-122.076;2022-07-29T02:18:31;5.45;;;3.20;;
64515;SDS011;50891;37.380;-122.076;2022-07-29T02:20:59;4.88;;;2.70;;
64515;SDS011;50891;37.380;-122.076;2022-07-29T02:23:26;4.72;;;2.70;;
64515;SDS011;50891;37.380;-122.076;2022-07-29T02:25:55;4.75;;;2.60;;
64515;SDS011;50891;37.380;-122.076;2022-07-29T02:28:24;4.70;;;2.58;;
64515;SDS011;50891;37.380;-122.076;2022-07-29T02:30:53;4.35;;;2.47;;
64515;SDS011;50891;37.380;-122.076;2022-07-29T02:33:25;5.07;;;2.53;;
64515;SDS011;50891;37.380;-122.076;2022-07-29T02:35:52;4.65;;;2.40;;
64515;SDS011;50891;37.380;-122.076;2022-07-29T02:38:20;4.18;;;2.30;;
64515;SDS011;50891;37.380;-122.076;2022-07-29T02:41:10;3.67;;;2.20;;
64515;SDS011;50891;37.380;-122.076;2022-07-29T02:43:39;5.93;;;2.30;;
64515;SDS011;50891;37.380;-122.076;2022-07-29T02:46:11;3.28;;;2.05;;
64515;SDS011;50891;37.380;-122.076;2022-07-29T02:48:45;3.35;;;2.15;;
64515;SDS011;50891;37.380;-122.076;2022-07-29T02:51:19;3.85;;;2.08;;
64515;SDS011;50891;37.380;-122.076;2022-07-29T02:53:54;2.55;;;1.92;;
64515;SDS011;50891;37.380;-122.076;2022-07-29T02:56:23;2.92;;;1.98;;
64515;SDS011;50891;37.380;-122.076;2022-07-29T02:58:54;2.70;;;1.90;;
64515;SDS011;50891;37.380;-122.076;2022-07-29T03:01:24;3.03;;;1.98;;
64515;SDS011;50891;37.380;-122.076;2022-07-29T03:03:55;2.95;;;1.83;;
64515;SDS011;50891;37.380;-122.076;2022-07-29T03:06:23;3.22;;;1.70;;
64515;SDS011;50891;37.380;-122.076;2022-07-29T03:08:52;3.47;;;1.80;;
64515;SDS011;50891;37.380;-122.076;2022-07-29T03:11:20;3.33;;;1.90;;
64515;SDS011;50891;37.380;-122.076;2022-07-29T03:13:47;2.70;;;1.80;;
64515;SDS011;50891;37.380;-122.076;2022-07-29T03:16:14;3.50;;;1.67;;
64515;SDS011;50891;37.380;-122.076;2022-07-29T03:18:40;3.13;;;1.75;;
64515;SDS011;50891;37.380;-122.076;2022-07-29T03:21:07;7.60;;;1.60;;
64515;SDS011;50891;37.380;-122.076;2022-07-29T03:23:34;1.98;;;1.50;;
64515;SDS011;50891;37.380;-122.076;2022-07-29T03:26:00;1.92;;;1.58;;
64515;SDS011;50891;37.380;-122.076;2022-07-29T03:28:26;1.63;;;1.40;;
64515;SDS011;50891;37.380;-122.076;2022-07-29T03:30:52;2.70;;;1.58;;
64515;SDS011;50891;37.380;-122.076;2022-07-29T03:33:19;2.13;;;1.60;;
64515;SDS011;50891;37.380;-122.076;2022-07-29T03:35:45;1.67;;;1.48;;
64515;SDS011;50891;37.380;-122.076;2022-07-29T03:38:11;2.47;;;1.50;;
64515;SDS011;50891;37.380;-122.076;2022-07-29T03:40:39;2.23;;;1.77;;
64515;SDS011;50891;37.380;-122.076;2022-07-29T03:43:27;1.52;;;1.40;;
64515;SDS011;50891;37.380;-122.076;2022-07-29T03:45:58;2.15;;;1.50;;
64515;SDS011;50891;37.380;-122.076;2022-07-29T03:48:27;2.10;;;1.52;;
64515;SDS011;50891;37.380;-122.076;2022-07-29T03:50:57;2.15;;;1.45;;
64515;SDS011;50891;37.380;-122.076;2022-07-29T03:53:23;2.42;;;1.40;;
64515;SDS011;50891;37.380;-122.076;2022-07-29T03:55:52;1.85;;;1.33;;
64515;SDS011;50891;37.380;-122.076;2022-07-29T03:58:22;2.15;;;1.30;;
64515;SDS011;50891;37.380;-122.076;2022-07-29T04:00:51;1.88;;;1.40;;
64515;SDS011;50891;37.380;-122.076;2022-07-29T04:03:19;1.55;;;1.20;;
64515;SDS011;50891;37.380;-122.076;2022-07-29T04:05:57;2.40;;;1.30;;
64515;SDS011;50891;37.380;-122.076;2022-07-29T04:08:27;3.15;;;1.40;;
64515;SDS011;50891;37.380;-122.076;2022-07-29T04:10:53;2.13;;;1.50;;
64515;SDS011;50891;37.380;-122.076;2022-07-29T04:13:20;1.57;;;1.30;;
64515;SDS011;50891;37.380;-122.076;2022-07-29T04:15:46;1.50;;;1.30;;
64515;SDS011;50891;37.380;-122.076;2022-07-29T04:18:12;1.35;;;1.20;;
64515;SDS011;50891;37.380;-122.076;2022-07-29T04:20:39;1.23;;;1.13;;
64515;SDS011;50891;37.380;-122.076;2022-07-29T04:23:05;2.35;;;1.25;;
64515;SDS011;50891;37.380;-122.076;2022-07-29T04:25:31;2.00;;;1.30;;
64515;SDS011;50891;37.380;-122.076;2022-07-29T04:27:57;1.65;;;1.13;;
64515;SDS011;50891;37.380;-122.076;2022-07-29T04:30:26;1.93;;;1.30;;
64515;SDS011;50891;37.380;-122.076;2022-07-29T04:32:54;1.88;;;1.33;;
64515;SDS011;50891;37.380;-122.076;2022-07-29T04:35:20;1.35;;;1.25;;
64515;SDS011;50891;37.380;-122.076;2022-07-29T04:37:46;2.10;;;1.30;;
64515;SDS011;50891;37.380;-122.076;2022-07-29T04:40:13;1.38;;;1.10;;
64515;SDS011;50891;37.380;-122.076;2022-07-29T04:42:39;1.33;;;1.20;;
64515;SDS011;50891;37.380;-122.076;2022-07-29T04:45:05;1.95;;;1.35;;
64515;SDS011;50891;37.380;-122.076;2022-07-29T04:47:32;1.48;;;1.20;;
64515;SDS011;50891;37.380;-122.076;2022-07-29T04:49:58;1.75;;;1.13;;
64515;SDS011;50891;37.380;-122.076;2022-07-29T04:52:24;1.38;;;1.10;;
64515;SDS011;50891;37.380;-122.076;2022-07-29T04:54:50;2.57;;;1.30;;
64515;SDS011;50891;37.380;-122.076;2022-07-29T04:57:17;1.27;;;1.00;;
64515;SDS011;50891;37.380;-122.076;2022-07-29T04:59:43;1.40;;;1.10;;
64515;SDS011;50891;37.380;-122.076;2022-07-29T05:02:09;1.65;;;1.17;;
64515;SDS011;50891;37.380;-122.076;2022-07-29T05:04:35;1.07;;;1.07;;
64515;SDS011;50891;37.380;-122.076;2022-07-29T05:07:01;1.40;;;1.15;;
64515;SDS011;50891;37.380;-122.076;2022-07-29T05:09:28;1.23;;;1.10;;
64515;SDS011;50891;37.380;-122.076;2022-07-29T05:11:54;1.17;;;1.08;;
64515;SDS011;50891;37.380;-122.076;2022-07-29T05:14:20;1.88;;;1.15;;
64515;SDS011;50891;37.380;-122.076;2022-07-29T05:16:46;1.13;;;1.02;;
64515;SDS011;50891;37.380;-122.076;2022-07-29T05:19:13;2.30;;;1.20;;
64515;SDS011;50891;37.380;-122.076;2022-07-29T05:21:40;1.10;;;1.00;;
64515;SDS011;50891;37.380;-122.076;2022-07-29T05:24:06;0.80;;;0.80;;
64515;SDS011;50891;37.380;-122.076;2022-07-29T05:26:33;1.00;;;0.90;;
64515;SDS011;50891;37.380;-122.076;2022-07-29T05:28:59;0.82;;;0.82;;
64515;SDS011;50891;37.380;-122.076;2022-07-29T05:31:25;1.02;;;0.95;;
64515;SDS011;50891;37.380;-122.076;2022-07-29T05:33:54;1.60;;;1.00;;
64515;SDS011;50891;37.380;-122.076;2022-07-29T05:36:20;1.48;;;1.00;;
64515;SDS011;50891;37.380;-122.076;2022-07-29T05:38:47;1.10;;;1.00;;
64515;SDS011;50891;37.380;-122.076;2022-07-29T05:41:16;1.05;;;0.95;;
64515;SDS011;50891;37.380;-122.076;2022-07-29T05:43:42;1.30;;;0.80;;
64515;SDS011;50891;37.380;-122.076;2022-07-29T05:46:08;1.40;;;0.88;;
64515;SDS011;50891;37.380;-122.076;2022-07-29T05:48:34;1.42;;;1.00;;
64515;SDS011;50891;37.380;-122.076;2022-07-29T05:51:00;1.42;;;0.85;;
64515;SDS011;50891;37.380;-122.076;2022-07-29T05:53:27;1.40;;;0.93;;
64515;SDS011;50891;37.380;-122.076;2022-07-29T05:55:53;0.85;;;0.82;;
64515;SDS011;50891;37.380;-122.076;2022-07-29T05:58:19;1.20;;;1.10;;
64515;SDS011;50891;37.380;-122.076;2022-07-29T06:00:46;1.40;;;0.90;;
64515;SDS011;50891;37.380;-122.076;2022-07-29T06:03:12;1.23;;;1.00;;
64515;SDS011;50891;37.380;-122.076;2022-07-29T06:05:38;1.00;;;0.90;;
64515;SDS011;50891;37.380;-122.076;2022-07-29T06:08:05;1.00;;;0.80;;
64515;SDS011;50891;37.380;-122.076;2022-07-29T06:10:32;1.35;;;0.98;;
64515;SDS011;50891;37.380;-122.076;2022-07-29T06:13:00;0.77;;;0.77;;
64515;SDS011;50891;37.380;-122.076;2022-07-29T06:15:26;2.30;;;0.90;;
64515;SDS011;50891;37.380;-122.076;2022-07-29T06:17:53;1.35;;;0.80;;
64515;SDS011;50891;37.380;-122.076;2022-07-29T06:20:19;0.87;;;0.87;;
64515;SDS011;50891;37.380;-122.076;2022-07-29T06:22:45;0.70;;;0.70;;
64515;SDS011;50891;37.380;-122.076;2022-07-29T06:25:11;1.10;;;1.00;;
64515;SDS011;50891;37.380;-122.076;2022-07-29T06:27:38;1.15;;;0.90;;
64515;SDS011;50891;37.380;-122.076;2022-07-29T06:30:04;0.80;;;0.70;;
64515;SDS011;50891;37.380;-122.076;2022-07-29T06:32:32;1.05;;;0.95;;
64515;SDS011;50891;37.380;-122.076;2022-07-29T06:34:59;1.00;;;0.90;;
64515;SDS011;50891;37.380;-122.076;2022-07-29T06:37:25;1.08;;;0.90;;
64515;SDS011;50891;37.380;-122.076;2022-07-29T06:39:51;0.83;;;0.83;;
64515;SDS011;50891;37.380;-122.076;2022-07-29T06:42:37;1.15;;;1.00;;
64515;SDS011;50891;37.380;-122.076;2022-07-29T06:45:08;0.88;;;0.82;;
64515;SDS011;50891;37.380;-122.076;2022-07-29T06:47:35;1.00;;;0.75;;
64515;SDS011;50891;37.380;-122.076;2022-07-29T06:50:01;1.15;;;1.02;;
64515;SDS011;50891;37.380;-122.076;2022-07-29T06:52:28;1.20;;;0.90;;
64515;SDS011;50891;37.380;-122.076;2022-07-29T06:54:54;0.85;;;0.85;;
64515;SDS011;50891;37.380;-122.076;2022-07-29T06:57:21;1.20;;;0.90;;
64515;SDS011;50891;37.380;-122.076;2022-07-29T06:59:47;1.20;;;0.88;;
64515;SDS011;50891;37.380;-122.076;2022-07-29T07:02:14;1.20;;;0.98;;
64515;SDS011;50891;37.380;-122.076;2022-07-29T07:04:40;1.10;;;1.00;;
64515;SDS011;50891;37.380;-122.076;2022-07-29T07:07:06;1.10;;;0.85;;
64515;SDS011;50891;37.380;-122.076;2022-07-29T07:09:32;1.20;;;0.95;;
64515;SDS011;50891;37.380;-122.076;2022-07-29T07:11:58;1.05;;;0.80;;
64515;SDS011;50891;37.380;-122.076;2022-07-29T07:14:29;1.20;;;0.80;;
64515;SDS011;50891;37.380;-122.076;2022-07-29T07:16:55;0.80;;;0.80;;
64515;SDS011;50891;37.380;-122.076;2022-07-29T07:19:21;1.60;;;0.98;;
64515;SDS011;50891;37.380;-122.076;2022-07-29T07:21:48;1.10;;;0.80;;
64515;SDS011;50891;37.380;-122.076;2022-07-29T07:24:14;1.17;;;0.95;;
64515;SDS011;50891;37.380;-122.076;2022-07-29T07:26:40;0.75;;;0.75;;
64515;SDS011;50891;37.380;-122.076;2022-07-29T07:29:06;1.05;;;0.95;;
64515;SDS011;50891;37.380;-122.076;2022-07-29T07:31:33;1.00;;;0.98;;
64515;SDS011;50891;37.380;-122.076;2022-07-29T07:33:59;0.77;;;0.77;;
64515;SDS011;50891;37.380;-122.076;2022-07-29T07:36:25;1.10;;;1.00;;
64515;SDS011;50891;37.380;-122.076;2022-07-29T07:38:51;1.35;;;0.93;;
64515;SDS011;50891;37.380;-122.076;2022-07-29T07:41:18;1.60;;;0.80;;
64515;SDS011;50891;37.380;-122.076;2022-07-29T07:43:44;0.80;;;0.80;;
64515;SDS011;50891;37.380;-122.076;2022-07-29T07:46:10;1.40;;;0.90;;
64515;SDS011;50891;37.380;-122.076;2022-07-29T07:48:36;1.57;;;0.97;;
64515;SDS011;50891;37.380;-122.076;2022-07-29T07:51:03;0.80;;;0.80;;
64515;SDS011;50891;37.380;-122.076;2022-07-29T07:53:29;0.70;;;0.70;;
64515;SDS011;50891;37.380;-122.076;2022-07-29T07:55:55;0.73;;;0.70;;
64515;SDS011;50891;37.380;-122.076;2022-07-29T07:58:22;1.30;;;0.80;;
64515;SDS011;50891;37.380;-122.076;2022-07-29T08:00:48;1.63;;;0.90;;
64515;SDS011;50891;37.380;-122.076;2022-07-29T08:03:14;0.70;;;0.70;;
64515;SDS011;50891;37.380;-122.076;2022-07-29T08:05:40;0.85;;;0.85;;
64515;SDS011;50891;37.380;-122.076;2022-07-29T08:08:06;0.70;;;0.70;;
64515;SDS011;50891;37.380;-122.076;2022-07-29T08:10:33;1.08;;;0.98;;
64515;SDS011;50891;37.380;-122.076;2022-07-29T08:13:18;2.00;;;1.50;;
64515;SDS011;50891;37.380;-122.076;2022-07-29T08:15:46;1.02;;;0.93;;
64515;SDS011;50891;37.380;-122.076;2022-07-29T08:18:13;1.98;;;0.95;;
64515;SDS011;50891;37.380;-122.076;2022-07-29T08:20:39;1.20;;;1.05;;
64515;SDS011;50891;37.380;-122.076;2022-07-29T08:23:06;1.53;;;0.80;;
64515;SDS011;50891;37.380;-122.076;2022-07-29T08:25:36;1.35;;;0.80;;
64515;SDS011;50891;37.380;-122.076;2022-07-29T08:28:05;1.40;;;1.08;;
64515;SDS011;50891;37.380;-122.076;2022-07-29T08:30:32;1.73;;;1.00;;
64515;SDS011;50891;37.380;-122.076;2022-07-29T08:32:59;1.70;;;1.08;;
64515;SDS011;50891;37.380;-122.076;2022-07-29T08:35:26;3.50;;;1.00;;
64515;SDS011;50891;37.380;-122.076;2022-07-29T08:37:52;1.70;;;0.90;;
64515;SDS011;50891;37.380;-122.076;2022-07-29T08:40:19;3.20;;;1.10;;
64515;SDS011;50891;37.380;-122.076;2022-07-29T08:42:46;0.93;;;0.80;;
64515;SDS011;50891;37.380;-122.076;2022-07-29T08:45:12;1.90;;;0.90;;
64515;SDS011;50891;37.380;-122.076;2022-07-29T08:47:39;2.03;;;0.98;;
64515;SDS011;50891;37.380;-122.076;2022-07-29T08:50:06;3.60;;;0.90;;
64515;SDS011;50891;37.380;-122.076;2022-07-29T08:52:35;1.17;;;0.70;;
64515;SDS011;50891;37.380;-122.076;2022-07-29T08:55:02;1.23;;;1.00;;
64515;SDS011;50891;37.380;-122.076;2022-07-29T08:57:31;1.07;;;0.90;;
64515;SDS011;50891;37.380;-122.076;2022-07-29T09:00:00;1.40;;;0.90;;
64515;SDS011;50891;37.380;-122.076;2022-07-29T09:02:29;0.73;;;0.73;;
64515;SDS011;50891;37.380;-122.076;2022-07-29T09:05:04;1.00;;;0.90;;
64515;SDS011;50891;37.380;-122.076;2022-07-29T09:07:31;0.95;;;0.90;;
64515;SDS011;50891;37.380;-122.076;2022-07-29T09:09:58;2.03;;;1.35;;
64515;SDS011;50891;37.380;-122.076;2022-07-29T09:12:25;3.10;;;1.70;;
64515;SDS011;50891;37.380;-122.076;2022-07-29T09:14:51;3.92;;;1.60;;
64515;SDS011;50891;37.380;-122.076;2022-07-29T09:17:17;3.60;;;1.45;;
64515;SDS011;50891;37.380;-122.076;2022-07-29T09:20:13;3.40;;;1.63;;
64515;SDS011;50891;37.380;-122.076;2022-07-29T09:22:41;2.13;;;1.45;;
64515;SDS011;50891;37.380;-122.076;2022-07-29T09:25:08;2.75;;;1.60;;
64515;SDS011;50891;37.380;-122.076;2022-07-29T09:27:37;3.35;;;1.60;;
64515;SDS011;50891;37.380;-122.076;2022-07-29T09:32:30;2.15;;;1.30;;
64515;SDS011;50891;37.380;-122.076;2022-07-29T09:37:43;2.25;;;1.42;;
64515;SDS011;50891;37.380;-122.076;2022-07-29T09:40:17;2.20;;;1.47;;
64515;SDS011;50891;37.380;-122.076;2022-07-29T09:42:46;2.40;;;1.20;;
64515;SDS011;50891;37.380;-122.076;2022-07-29T09:45:13;1.80;;;1.20;;
64515;SDS011;50891;37.380;-122.076;2022-07-29T09:47:55;2.40;;;1.38;;
64515;SDS011;50891;37.380;-122.076;2022-07-29T09:50:38;3.23;;;1.50;;
64515;SDS011;50891;37.380;-122.076;2022-07-29T09:53:05;2.15;;;1.33;;
64515;SDS011;50891;37.380;-122.076;2022-07-29T09:55:45;2.47;;;1.30;;
64515;SDS011;50891;37.380;-122.076;2022-07-29T09:58:15;2.67;;;1.30;;
64515;SDS011;50891;37.380;-122.076;2022-07-29T10:00:47;1.65;;;1.08;;
64515;SDS011;50891;37.380;-122.076;2022-07-29T10:03:16;1.45;;;1.10;;
64515;SDS011;50891;37.380;-122.076;2022-07-29T10:05:43;1.63;;;1.20;;
64515;SDS011;50891;37.380;-122.076;2022-07-29T10:08:10;1.70;;;1.27;;
64515;SDS011;50891;37.380;-122.076;2022-07-29T10:10:41;1.92;;;1.10;;
64515;SDS011;50891;37.380;-122.076;2022-07-29T10:13:09;1.47;;;1.20;;
64515;SDS011;50891;37.380;-122.076;2022-07-29T10:15:38;2.55;;;1.20;;
64515;SDS011;50891;37.380;-122.076;2022-07-29T10:18:08;1.40;;;1.23;;
64515;SDS011;50891;37.380;-122.076;2022-07-29T10:20:36;1.48;;;0.90;;
64515;SDS011;50891;37.380;-122.076;2022-07-29T10:23:03;1.52;;;1.10;;
64515;SDS011;50891;37.380;-122.076;2022-07-29T10:25:30;1.90;;;1.20;;
64515;SDS011;50891;37.380;-122.076;2022-07-29T10:27:56;1.20;;;1.10;;
64515;SDS011;50891;37.380;-122.076;2022-07-29T10:30:24;1.20;;;1.10;;
64515;SDS011;50891;37.380;-122.076;2022-07-29T10:38:55;1.30;;;1.00;;
64515;SDS011;50891;37.380;-122.076;2022-07-29T10:41:37;1.60;;;1.10;;
64515;SDS011;50891;37.380;-122.076;2022-07-29T10:44:16;2.20;;;1.17;;
64515;SDS011;50891;37.380;-122.076;2022-07-29T10:46:45;1.30;;;1.20;;
64515;SDS011;50891;37.380;-122.076;2022-07-29T10:51:58;1.20;;;1.10;;
64515;SDS011;50891;37.380;-122.076;2022-07-29T10:57:46;0.90;;;0.90;;
64515;SDS011;50891;37.380;-122.076;2022-07-29T11:05:17;0.80;;;0.80;;
64515;SDS011;50891;37.380;-122.076;2022-07-29T11:10:38;1.00;;;1.00;;
64515;SDS011;50891;37.380;-122.076;2022-07-29T11:13:05;0.80;;;0.80;;
64515;SDS011;50891;37.380;-122.076;2022-07-29T11:18:23;1.30;;;1.20;;
64515;SDS011;50891;37.380;-122.076;2022-07-29T11:20:50;1.42;;;0.98;;
64515;SDS011;50891;37.380;-122.076;2022-07-29T11:23:19;0.75;;;0.75;;
64515;SDS011;50891;37.380;-122.076;2022-07-29T11:31:17;1.00;;;0.90;;
64515;SDS011;50891;37.380;-122.076;2022-07-29T11:34:17;0.70;;;0.70;;
64515;SDS011;50891;37.380;-122.076;2022-07-29T11:39:41;0.70;;;0.70;;
64515;SDS011;50891;37.380;-122.076;2022-07-29T11:47:27;0.60;;;0.60;;
64515;SDS011;50891;37.380;-122.076;2022-07-29T11:49:55;1.10;;;0.60;;
64515;SDS011;50891;37.380;-122.076;2022-07-29T11:52:23;0.60;;;0.60;;
64515;SDS011;50891;37.380;-122.076;2022-07-29T11:54:57;0.65;;;0.60;;
64515;SDS011;50891;37.380;-122.076;2022-07-29T11:57:26;0.80;;;0.75;;
64515;SDS011;50891;37.380;-122.076;2022-07-29T11:59:54;0.80;;;0.70;;
64515;SDS011;50891;37.380;-122.076;2022-07-29T12:02:23;0.70;;;0.70;;
64515;SDS011;50891;37.380;-122.076;2022-07-29T12:04:56;0.70;;;0.70;;
64515;SDS011;50891;37.380;-122.076;2022-07-29T12:07:31;0.45;;;0.45;;
64515;SDS011;50891;37.380;-122.076;2022-07-29T12:09:58;0.70;;;0.70;;
64515;SDS011;50891;37.380;-122.076;2022-07-29T12:12:25;1.40;;;0.60;;
64515;SDS011;50891;37.380;-122.076;2022-07-29T12:14:51;1.00;;;0.50;;
64515;SDS011;50891;37.380;-122.076;2022-07-29T12:19:53;0.55;;;0.55;;
64515;SDS011;50891;37.380;-122.076;2022-07-29T12:22:33;0.43;;;0.43;;
64515;SDS011;50891;37.380;-122.076;2022-07-29T12:25:11;0.50;;;0.50;;
64515;SDS011;50891;37.380;-122.076;2022-07-29T12:27:40;0.50;;;0.50;;
64515;SDS011;50891;37.380;-122.076;2022-07-29T12:30:12;0.47;;;0.47;;
64515;SDS011;50891;37.380;-122.076;2022-07-29T12:32:43;0.60;;;0.60;;
64515;SDS011;50891;37.380;-122.076;2022-07-29T12:35:18;0.55;;;0.55;;
64515;SDS011;50891;37.380;-122.076;2022-07-29T12:37:45;0.50;;;0.50;;
64515;SDS011;50891;37.380;-122.076;2022-07-29T12:40:14;0.50;;;0.50;;
64515;SDS011;50891;37.380;-122.076;2022-07-29T12:45:32;0.50;;;0.50;;
64515;SDS011;50891;37.380;-122.076;2022-07-29T12:47:58;0.40;;;0.40;;
64515;SDS011;50891;37.380;-122.076;2022-07-29T12:50:25;0.50;;;0.50;;
64515;SDS011;50891;37.380;-122.076;2022-07-29T12:52:51;0.40;;;0.40;;
64515;SDS011;50891;37.380;-122.076;2022-07-29T12:58:05;0.50;;;0.50;;
64515;SDS011;50891;37.380;-122.076;2022-07-29T13:00:31;1.10;;;0.57;;
64515;SDS011;50891;37.380;-122.076;2022-07-29T13:02:58;0.30;;;0.30;;
64515;SDS011;50891;37.380;-122.076;2022-07-29T13:05:39;0.60;;;0.60;;
64515;SDS011;50891;37.380;-122.076;2022-07-29T13:08:10;0.40;;;0.40;;
64515;SDS011;50891;37.380;-122.076;2022-07-29T13:10:40;0.40;;;0.40;;
64515;SDS011;50891;37.380;-122.076;2022-07-29T13:13:07;0.60;;;0.60;;
64515;SDS011;50891;37.380;-122.076;2022-07-29T13:15:43;0.40;;;0.40;;
64515;SDS011;50891;37.380;-122.076;2022-07-29T13:18:31;0.68;;;0.52;;
64515;SDS011;50891;37.380;-122.076;2022-07-29T13:21:11;0.50;;;0.50;;
64515;SDS011;50891;37.380;-122.076;2022-07-29T13:23:39;0.50;;;0.50;;
64515;SDS011;50891;37.380;-122.076;2022-07-29T13:26:06;0.50;;;0.50;;
64515;SDS011;50891;37.380;-122.076;2022-07-29T13:28:33;0.60;;;0.60;;
64515;SDS011;50891;37.380;-122.076;2022-07-29T13:31:00;0.77;;;0.60;;
64515;SDS011;50891;37.380;-122.076;2022-07-29T13:33:26;0.50;;;0.50;;
64515;SDS011;50891;37.380;-122.076;2022-07-29T13:35:53;0.60;;;0.60;;
64515;SDS011;50891;37.380;-122.076;2022-07-29T13:38:19;0.50;;;0.50;;
64515;SDS011;50891;37.380;-122.076;2022-07-29T13:40:45;1.08;;;0.47;;
64515;SDS011;50891;37.380;-122.076;2022-07-29T13:43:12;0.50;;;0.50;;
64515;SDS011;50891;37.380;-122.076;2022-07-29T13:45:38;0.70;;;0.70;;
64515;SDS011;50891;37.380;-122.076;2022-07-29T13:48:04;0.60;;;0.50;;
64515;SDS011;50891;37.380;-122.076;2022-07-29T13:50:31;0.50;;;0.50;;
64515;SDS011;50891;37.380;-122.076;2022-07-29T13:52:58;0.50;;;0.50;;
64515;SDS011;50891;37.380;-122.076;2022-07-29T13:55:24;0.60;;;0.60;;
64515;SDS011;50891;37.380;-122.076;2022-07-29T13:57:51;1.37;;;0.60;;
64515;SDS011;50891;37.380;-122.076;2022-07-29T14:00:17;0.77;;;0.57;;
64515;SDS011;50891;37.380;-122.076;2022-07-29T14:02:44;0.60;;;0.60;;
64515;SDS011;50891;37.380;-122.076;2022-07-29T14:05:10;0.95;;;0.70;;
64515;SDS011;50891;37.380;-122.076;2022-07-29T14:07:37;1.35;;;0.60;;
64515;SDS011;50891;37.380;-122.076;2022-07-29T14:10:06;0.80;;;0.47;;
64515;SDS011;50891;37.380;-122.076;2022-07-29T14:12:33;0.40;;;0.40;;
64515;SDS011;50891;37.380;-122.076;2022-07-29T14:15:00;0.60;;;0.60;;
64515;SDS011;50891;37.380;-122.076;2022-07-29T14:17:26;1.30;;;0.60;;
64515;SDS011;50891;37.380;-122.076;2022-07-29T14:19:52;0.60;;;0.60;;
64515;SDS011;50891;37.380;-122.076;2022-07-29T14:22:18;0.65;;;0.57;;
64515;SDS011;50891;37.380;-122.076;2022-07-29T14:24:44;0.70;;;0.60;;
64515;SDS011;50891;37.380;-122.076;2022-07-29T14:27:11;0.60;;;0.52;;
64515;SDS011;50891;37.380;-122.076;2022-07-29T14:29:37;0.55;;;0.55;;
64515;SDS011;50891;37.380;-122.076;2022-07-29T14:32:06;0.90;;;0.50;;
64515;SDS011;50891;37.380;-122.076;2022-07-29T14:34:33;0.63;;;0.60;;
64515;SDS011;50891;37.380;-122.076;2022-07-29T14:37:00;0.50;;;0.50;;
64515;SDS011;50891;37.380;-122.076;2022-07-29T14:39:27;0.68;;;0.68;;
64515;SDS011;50891;37.380;-122.076;2022-07-29T14:41:54;0.70;;;0.70;;
64515;SDS011;50891;37.380;-122.076;2022-07-29T14:44:20;0.68;;;0.60;;
64515;SDS011;50891;37.380;-122.076;2022-07-29T14:46:46;0.68;;;0.68;;
64515;SDS011;50891;37.380;-122.076;2022-07-29T14:49:12;0.63;;;0.63;;
64515;SDS011;50891;37.380;-122.076;2022-07-29T14:51:39;0.70;;;0.70;;
64515;SDS011;50891;37.380;-122.076;2022-07-29T14:54:05;0.60;;;0.60;;
64515;SDS011;50891;37.380;-122.076;2022-07-29T14:56:31;0.60;;;0.60;;
64515;SDS011;50891;37.380;-122.076;2022-07-29T14:58:57;0.70;;;0.70;;
64515;SDS011;50891;37.380;-122.076;2022-07-29T15:01:24;0.75;;;0.65;;
64515;SDS011;50891;37.380;-122.076;2022-07-29T15:03:50;1.08;;;0.63;;
64515;SDS011;50891;37.380;-122.076;2022-07-29T15:06:17;0.90;;;0.70;;
64515;SDS011;50891;37.380;-122.076;2022-07-29T15:08:43;0.95;;;0.52;;
64515;SDS011;50891;37.380;-122.076;2022-07-29T15:11:09;1.45;;;0.80;;
64515;SDS011;50891;37.380;-122.076;2022-07-29T15:13:35;1.10;;;0.63;;
64515;SDS011;50891;37.380;-122.076;2022-07-29T15:16:02;1.00;;;0.73;;
64515;SDS011;50891;37.380;-122.076;2022-07-29T15:18:30;1.17;;;0.70;;